createdAt,value
2018-02-14T00:00:01.792Z,34.60
2018-02-14T00:02:29.478Z,35.10
2018-02-14T00:04:57.139Z,35.40
2018-02-14T00:07:24.909Z,35.30
2018-02-14T00:09:52.607Z,35.10
2018-02-14T00:12:20.266Z,35.40
2018-02-14T00:14:47.993Z,35.30
2018-02-14T00:17:15.653Z,35.30
2018-02-14T00:19:43.371Z,35.00
2018-02-14T00:22:11.084Z,35.00
2018-02-14T00:24:38.780Z,37.80
2018-02-14T00:27:06.445Z,36.20
2018-02-14T00:29:34.168Z,35.10
2018-02-14T00:32:01.893Z,34.50
2018-02-14T00:34:29.553Z,34.50
2018-02-14T00:36:57.210Z,34.10
2018-02-14T00:39:25.023Z,34.00
2018-02-14T00:41:52.678Z,34.00
2018-02-14T00:44:20.346Z,34.30
2018-02-14T00:46:48.845Z,33.80
2018-02-14T00:49:16.516Z,33.70
2018-02-14T00:51:44.270Z,34.00
2018-02-14T00:54:11.933Z,33.50
2018-02-14T00:56:39.600Z,33.30
2018-02-14T00:59:07.328Z,33.20
2018-02-14T01:01:34.992Z,33.60
2018-02-14T01:04:02.660Z,33.10
2018-02-14T01:06:30.386Z,33.70
2018-02-14T01:08:58.129Z,34.50
2018-02-14T01:11:25.854Z,33.80
2018-02-14T01:13:53.627Z,33.30
2018-02-14T01:16:22.171Z,34.10
2018-02-14T01:18:50.054Z,34.00
2018-02-14T01:21:17.827Z,34.60
2018-02-14T01:23:45.598Z,35.00
2018-02-14T01:26:13.382Z,34.90
2018-02-14T01:28:41.104Z,35.50
2018-02-14T01:31:08.874Z,35.40
2018-02-14T01:33:36.703Z,35.50
2018-02-14T01:36:04.442Z,34.80
2018-02-14T01:38:32.209Z,34.90
2018-02-14T01:41:00.011Z,35.40
2018-02-14T01:43:27.779Z,35.70
2018-02-14T01:45:55.534Z,36.40
2018-02-14T01:48:23.335Z,35.60
2018-02-14T01:50:51.058Z,35.00
2018-02-14T01:53:18.788Z,35.00
2018-02-14T01:55:46.564Z,35.20
2018-02-14T01:58:14.303Z,35.70
2018-02-14T02:00:42.116Z,35.70
2018-02-14T02:03:10.645Z,36.30
2018-02-14T02:05:38.369Z,36.20
2018-02-14T02:08:06.907Z,36.30
2018-02-14T02:10:34.628Z,36.20
2018-02-14T02:13:03.140Z,36.40
2018-02-14T02:15:30.886Z,36.30
2018-02-14T02:17:58.698Z,36.10
2018-02-14T02:20:26.503Z,36.20
2018-02-14T02:22:54.985Z,35.50
2018-02-14T02:25:23.514Z,35.50
2018-02-14T02:27:51.288Z,35.40
2018-02-14T02:30:19.055Z,35.30
2018-02-14T02:32:48.001Z,35.10
2018-02-14T02:35:15.739Z,35.20
2018-02-14T02:37:43.514Z,35.00
2018-02-14T02:40:23.086Z,35.50
2018-02-14T02:42:50.800Z,36.10
2018-02-14T02:45:18.514Z,35.80
2018-02-14T02:47:46.302Z,34.80
2018-02-14T02:50:14.010Z,34.30
2018-02-14T02:52:41.779Z,34.30
2018-02-14T02:55:09.518Z,34.80
2018-02-14T02:57:37.250Z,34.80
2018-02-14T03:00:05.023Z,35.00
2018-02-14T03:02:32.731Z,35.10
2018-02-14T03:05:00.498Z,35.20
2018-02-14T03:07:28.258Z,35.30
2018-02-14T03:09:55.961Z,35.10
2018-02-14T03:12:23.670Z,35.00
2018-02-14T03:14:51.398Z,35.10
2018-02-14T03:17:19.901Z,35.30
2018-02-14T03:19:47.670Z,35.20
2018-02-14T03:22:15.447Z,35.20
2018-02-14T03:24:43.209Z,34.80
2018-02-14T03:27:10.973Z,35.20
2018-02-14T03:29:38.684Z,35.40
2018-02-14T03:32:06.403Z,35.90
2018-02-14T03:34:34.128Z,36.00
2018-02-14T03:37:01.842Z,36.80
2018-02-14T03:39:29.545Z,37.00
2018-02-14T03:41:57.254Z,37.20
2018-02-14T03:44:24.982Z,37.00
2018-02-14T03:46:52.716Z,36.90
2018-02-14T03:49:20.514Z,37.00
2018-02-14T03:51:48.317Z,37.20
2018-02-14T03:54:16.089Z,37.40
2018-02-14T03:56:43.852Z,37.40
2018-02-14T03:59:11.610Z,37.60
2018-02-14T04:01:40.096Z,37.90
2018-02-14T04:04:08.634Z,38.00
2018-02-14T04:06:36.424Z,37.90
2018-02-14T04:09:04.191Z,38.50
2018-02-14T04:11:31.957Z,38.60
2018-02-14T04:13:59.674Z,38.80
2018-02-14T04:16:27.434Z,39.00
2018-02-14T04:18:55.174Z,38.20
2018-02-14T04:21:22.934Z,38.60
2018-02-14T04:23:50.660Z,38.40
2018-02-14T04:26:18.408Z,38.30
2018-02-14T04:28:46.222Z,38.00
2018-02-14T04:31:14.012Z,37.90
2018-02-14T04:33:42.673Z,37.80
2018-02-14T04:36:10.409Z,37.80
2018-02-14T04:38:38.182Z,37.40
2018-02-14T04:41:05.981Z,38.00
2018-02-14T04:43:33.706Z,37.40
2018-02-14T04:46:01.861Z,37.50
2018-02-14T04:48:29.630Z,37.80
2018-02-14T04:50:57.393Z,38.10
2018-02-14T04:53:25.183Z,38.60
2018-02-14T04:55:52.965Z,38.20
2018-02-14T04:58:20.750Z,38.30
2018-02-14T05:00:48.530Z,38.40
2018-02-14T05:03:16.233Z,38.60
2018-02-14T05:05:44.007Z,38.20
2018-02-14T05:08:11.725Z,37.80
2018-02-14T05:10:39.476Z,37.70
2018-02-14T05:13:07.194Z,37.70
2018-02-14T05:15:34.929Z,37.30
2018-02-14T05:18:03.429Z,37.20
2018-02-14T05:20:31.205Z,37.10
2018-02-14T05:22:58.973Z,37.50
2018-02-14T05:25:26.682Z,37.30
2018-02-14T05:27:54.484Z,37.70
2018-02-14T05:30:22.245Z,37.80
2018-02-14T05:32:53.013Z,38.40
2018-02-14T05:35:20.752Z,37.80
2018-02-14T05:41:34.728Z,37.50
2018-02-14T05:44:03.321Z,36.80
2018-02-14T05:46:32.186Z,36.70
2018-02-14T05:48:59.990Z,36.50
2018-02-14T05:51:27.802Z,36.30
2018-02-14T05:53:55.596Z,36.20
2018-02-14T05:56:24.143Z,36.00
2018-02-14T05:58:51.938Z,36.00
2018-02-14T06:01:19.780Z,36.10
2018-02-14T06:03:47.497Z,36.10
2018-02-14T06:06:15.272Z,36.00
2018-02-14T06:08:43.055Z,36.00
2018-02-14T06:11:10.773Z,35.60
2018-02-14T06:13:38.494Z,35.40
2018-02-14T06:16:06.382Z,35.40
2018-02-14T06:18:34.142Z,35.30
2018-02-14T06:21:01.870Z,35.00
2018-02-14T06:23:29.646Z,34.70
2018-02-14T06:25:57.421Z,34.60
2018-02-14T06:28:25.173Z,34.60
2018-02-14T06:30:52.990Z,34.20
2018-02-14T06:33:20.768Z,34.20
2018-02-14T06:35:48.563Z,34.20
2018-02-14T06:38:16.345Z,33.70
2018-02-14T06:40:48.094Z,33.80
2018-02-14T06:43:15.916Z,33.50
2018-02-14T06:45:43.695Z,33.50
2018-02-14T06:48:11.410Z,35.90
2018-02-14T06:50:39.130Z,32.90
2018-02-14T06:53:06.886Z,32.80
2018-02-14T06:55:34.646Z,32.90
2018-02-14T06:58:02.470Z,32.70
2018-02-14T07:00:30.215Z,33.00
2018-02-14T07:02:58.695Z,33.00
2018-02-14T07:05:26.502Z,33.00
2018-02-14T07:07:54.289Z,32.60
2018-02-14T07:10:22.031Z,32.70
2018-02-14T07:12:49.832Z,32.50
2018-02-14T07:15:17.570Z,32.70
2018-02-14T07:17:45.346Z,32.70
2018-02-14T07:20:13.150Z,32.90
2018-02-14T07:22:40.861Z,32.50
2018-02-14T07:25:08.648Z,33.20
2018-02-14T07:27:36.367Z,33.20
2018-02-14T07:30:04.212Z,33.20
2018-02-14T07:32:32.011Z,33.30
2018-02-14T07:34:59.727Z,33.10
2018-02-14T07:37:27.511Z,33.00
2018-02-14T07:39:55.341Z,33.20
2018-02-14T07:42:23.129Z,33.00
2018-02-14T07:44:50.902Z,32.90
2018-02-14T07:47:18.680Z,32.70
2018-02-14T07:49:46.412Z,32.50
2018-02-14T07:52:14.238Z,32.50
2018-02-14T07:54:42.782Z,32.30
2018-02-14T07:57:10.544Z,32.20
2018-02-14T07:59:38.286Z,32.10
2018-02-14T08:02:06.020Z,32.30
2018-02-14T08:04:33.747Z,32.00
2018-02-14T08:07:01.487Z,32.40
2018-02-14T08:09:29.206Z,32.30
2018-02-14T08:11:57.710Z,32.90
2018-02-14T08:14:25.554Z,32.40
2018-02-14T08:16:53.350Z,31.90
2018-02-14T08:19:21.136Z,32.20
2018-02-14T08:21:48.854Z,32.10
2018-02-14T08:24:16.644Z,31.70
2018-02-14T08:26:44.462Z,31.30
2018-02-14T08:29:12.199Z,31.40
2018-02-14T08:31:41.275Z,31.30
2018-02-14T08:34:09.767Z,31.20
2018-02-14T08:36:37.569Z,31.10
2018-02-14T08:39:05.432Z,31.40
2018-02-14T08:41:33.226Z,31.10
2018-02-14T08:44:00.961Z,31.20
2018-02-14T08:46:28.751Z,31.40
2018-02-14T08:48:58.402Z,31.20
2018-02-14T08:51:27.544Z,31.10
2018-02-14T08:53:55.262Z,31.00
2018-02-14T08:56:23.014Z,31.30
2018-02-14T08:58:55.599Z,30.80
2018-02-14T09:01:23.452Z,30.70
2018-02-14T09:03:56.250Z,31.30
2018-02-14T09:06:27.020Z,31.00
2018-02-14T09:08:55.614Z,30.80
2018-02-14T09:11:23.393Z,31.10
2018-02-14T09:13:53.417Z,31.30
2018-02-14T09:16:21.141Z,31.10
2018-02-14T09:18:50.130Z,30.80
2018-02-14T09:21:22.426Z,31.50
2018-02-14T09:23:50.180Z,31.40
2018-02-14T09:26:19.631Z,31.50
2018-02-14T09:28:50.030Z,31.30
2018-02-14T09:31:18.587Z,31.40
2018-02-14T09:33:46.374Z,31.70
2018-02-14T09:36:14.104Z,32.20
2018-02-14T09:38:41.878Z,32.70
2018-02-14T09:41:09.596Z,32.30
2018-02-14T09:43:38.689Z,32.00
2018-02-14T09:46:06.503Z,32.60
2018-02-14T09:48:34.351Z,32.10
2018-02-14T09:51:02.139Z,31.80
2018-02-14T09:53:31.342Z,31.50
2018-02-14T09:55:59.132Z,31.10
2018-02-14T09:58:26.938Z,31.30
2018-02-14T10:00:55.265Z,31.00
2018-02-14T10:03:23.807Z,32.30
2018-02-14T10:05:52.392Z,32.00
2018-02-14T10:08:20.105Z,32.00
2018-02-14T10:10:48.665Z,32.80
2018-02-14T10:13:16.404Z,32.60
2018-02-14T10:15:44.188Z,31.20
2018-02-14T10:18:11.991Z,31.50
2018-02-14T10:20:39.720Z,31.60
2018-02-14T10:23:07.494Z,32.20
2018-02-14T10:25:35.290Z,32.30
2018-02-14T10:28:03.032Z,32.30
2018-02-14T10:30:30.821Z,32.80
2018-02-14T10:32:59.319Z,32.50
2018-02-14T10:35:27.872Z,32.50
2018-02-14T10:38:03.505Z,32.60
2018-02-14T10:40:32.107Z,33.10
2018-02-14T10:42:59.828Z,32.30
2018-02-14T10:45:27.573Z,32.30
2018-02-14T10:47:55.294Z,32.10
2018-02-14T10:50:23.791Z,31.90
2018-02-14T10:52:51.541Z,31.80
2018-02-14T10:55:19.288Z,32.00
2018-02-14T10:57:47.131Z,32.70
2018-02-14T11:13:37.750Z,29.70
2018-02-14T11:16:05.536Z,29.90
2018-02-14T11:18:33.278Z,30.00
2018-02-14T11:21:01.000Z,30.40
2018-02-14T11:23:28.711Z,29.70
2018-02-14T11:25:56.495Z,29.50
2018-02-14T11:28:24.265Z,29.20
2018-02-14T11:30:52.017Z,30.00
2018-02-14T11:33:19.861Z,29.60
2018-02-14T11:35:47.652Z,29.20
2018-02-14T11:38:15.488Z,29.10
2018-02-14T11:40:43.202Z,29.00
2018-02-14T11:43:11.023Z,29.70
2018-02-14T11:45:38.766Z,29.10
2018-02-14T11:48:06.494Z,28.40
2018-02-14T11:50:34.327Z,28.60
2018-02-14T11:53:02.110Z,28.60
2018-02-14T11:55:29.919Z,27.90
2018-02-14T11:57:57.748Z,28.20
2018-02-14T12:00:25.523Z,28.40
2018-02-14T12:02:53.340Z,28.10
2018-02-14T12:05:21.167Z,28.10
2018-02-14T12:07:48.953Z,28.20
2018-02-14T12:10:16.665Z,28.10
2018-02-14T12:12:44.430Z,28.20
2018-02-14T12:15:12.189Z,27.80
2018-02-14T12:17:39.912Z,28.50
2018-02-14T12:20:07.660Z,28.50
2018-02-14T12:22:35.390Z,28.70
2018-02-14T12:25:06.022Z,28.50
2018-02-14T12:27:33.799Z,28.40
2018-02-14T12:30:01.590Z,28.40
2018-02-14T12:32:29.792Z,28.20
2018-02-14T12:34:57.502Z,27.70
2018-02-14T12:37:26.129Z,28.00
2018-02-14T12:42:41.487Z,27.70
2018-02-14T12:45:09.275Z,28.60
2018-02-14T12:47:37.204Z,28.00
2018-02-14T12:50:04.987Z,27.60
2018-02-14T12:52:56.995Z,27.10
2018-02-14T12:55:31.072Z,27.00
2018-02-14T12:57:59.744Z,27.80
2018-02-14T13:00:27.552Z,29.50
2018-02-14T13:02:55.417Z,28.00
2018-02-14T13:05:23.202Z,26.50
2018-02-14T13:07:51.032Z,26.00
2018-02-14T13:10:18.859Z,26.30
2018-02-14T13:12:46.596Z,26.50
2018-02-14T13:15:14.393Z,26.10
2018-02-14T13:17:42.133Z,26.70
2018-02-14T13:20:10.396Z,26.40
2018-02-14T13:22:38.132Z,25.80
2018-02-14T13:25:05.986Z,25.60
2018-02-14T13:27:33.704Z,26.30
2018-02-14T13:30:01.431Z,24.70
2018-02-14T13:32:29.206Z,24.80
2018-02-14T13:34:57.032Z,24.10
2018-02-14T13:37:25.564Z,23.70
2018-02-14T13:39:53.307Z,23.60
2018-02-14T13:42:21.059Z,24.30
2018-02-14T13:44:48.778Z,24.10
2018-02-14T13:47:16.513Z,23.70
2018-02-14T13:49:44.317Z,24.00
2018-02-14T13:52:12.121Z,23.90
2018-02-14T13:54:40.922Z,23.80
2018-02-14T13:57:08.640Z,23.70
2018-02-14T13:59:36.474Z,23.90
2018-02-14T14:02:13.644Z,23.20
2018-02-14T14:04:41.420Z,23.10
2018-02-14T14:07:09.211Z,22.20
2018-02-14T14:09:37.710Z,22.90
2018-02-14T14:12:05.464Z,23.50
2018-02-14T14:14:33.185Z,23.60
2018-02-14T14:17:00.929Z,23.60
2018-02-14T14:19:28.869Z,23.00
2018-02-14T14:21:56.663Z,23.10
2018-02-14T14:24:24.394Z,22.30
2018-02-14T14:26:52.300Z,22.90
2018-02-14T14:29:20.100Z,23.20
2018-02-14T14:31:49.876Z,22.60
2018-02-14T14:34:17.643Z,22.20
2018-02-14T14:36:45.370Z,21.90
2018-02-14T14:39:13.136Z,21.80
2018-02-14T14:41:41.439Z,21.90
2018-02-14T14:44:09.295Z,21.60
2018-02-14T14:46:37.987Z,21.50
2018-02-14T14:49:05.714Z,21.70
2018-02-14T14:51:34.328Z,21.10
2018-02-14T14:54:02.720Z,21.10
2018-02-14T14:56:30.547Z,20.90
2018-02-14T14:58:59.079Z,20.80
2018-02-14T15:01:26.845Z,20.80
2018-02-14T15:03:55.385Z,19.90
2018-02-14T15:06:24.003Z,20.20
2018-02-14T15:08:51.834Z,20.10
2018-02-14T15:11:20.793Z,20.40
2018-02-14T15:13:49.336Z,20.50
2018-02-14T15:16:17.050Z,20.70
2018-02-14T15:18:44.818Z,20.00
2018-02-14T15:21:12.563Z,19.90
2018-02-14T15:23:45.297Z,19.90
2018-02-14T15:26:18.310Z,20.00
2018-02-14T15:28:46.215Z,20.70
2018-02-14T15:31:14.301Z,20.90
2018-02-14T15:33:45.922Z,21.20
2018-02-14T15:36:14.814Z,20.90
2018-02-14T15:38:44.604Z,21.50
2018-02-14T15:44:20.416Z,21.90
2018-02-14T15:46:48.397Z,21.90
2018-02-14T15:49:16.122Z,21.90
2018-02-14T15:51:43.847Z,22.40
2018-02-14T15:54:11.568Z,22.20
2018-02-14T15:56:39.303Z,22.50
2018-02-14T15:59:10.410Z,22.70
2018-02-14T16:01:38.192Z,22.60
2018-02-14T16:04:05.964Z,23.00
2018-02-14T16:06:33.678Z,23.10
2018-02-14T16:09:04.921Z,23.00
2018-02-14T16:11:33.098Z,22.80
2018-02-14T16:14:00.826Z,23.00
2018-02-14T16:16:28.572Z,22.70
2018-02-14T16:18:57.315Z,23.00
2018-02-14T16:21:25.116Z,22.60
2018-02-14T16:23:52.986Z,22.80
2018-02-14T16:26:20.745Z,22.70
2018-02-14T16:28:51.402Z,22.60
2018-02-14T16:31:19.139Z,22.80
2018-02-14T16:33:47.004Z,23.00
2018-02-14T16:36:14.775Z,23.40
2018-02-14T16:38:42.535Z,23.60
2018-02-14T16:41:10.359Z,23.20
2018-02-14T16:43:38.154Z,23.60
2018-02-14T16:46:05.927Z,23.70
2018-02-14T16:48:33.724Z,23.70
2018-02-14T16:51:02.872Z,23.60
2018-02-14T16:53:30.679Z,23.80
2018-02-14T16:55:58.470Z,23.90
2018-02-14T16:58:26.268Z,24.10
2018-02-14T17:00:54.122Z,24.20
2018-02-14T17:03:21.895Z,24.20
2018-02-14T17:05:49.701Z,24.40
2018-02-14T17:08:17.456Z,24.90
2018-02-14T17:10:45.296Z,24.60
2018-02-14T17:13:15.259Z,24.50
2018-02-14T17:15:52.019Z,24.70
2018-02-14T17:18:32.258Z,24.60
2018-02-14T17:21:00.286Z,24.40
2018-02-14T17:23:28.100Z,24.60
2018-02-14T17:25:57.571Z,25.00
2018-02-14T17:28:27.210Z,25.30
2018-02-14T17:30:56.184Z,26.20
2018-02-14T17:36:14.612Z,26.20
2018-02-14T17:38:43.309Z,26.40
2018-02-14T17:41:14.478Z,26.40
2018-02-14T17:44:04.973Z,26.50
2018-02-14T17:46:35.600Z,26.50
2018-02-14T17:49:03.360Z,26.50
2018-02-14T17:51:33.623Z,26.70
2018-02-14T17:54:01.446Z,26.80
2018-02-14T17:56:31.215Z,26.90
2018-02-14T17:58:58.964Z,26.70
2018-02-14T18:01:39.328Z,26.70
2018-02-14T18:06:43.892Z,26.80
2018-02-14T18:09:13.636Z,26.70
2018-02-14T18:11:41.507Z,26.70
2018-02-14T18:14:09.429Z,26.70
2018-02-14T18:16:37.381Z,27.00
2018-02-14T18:19:06.466Z,27.00
2018-02-14T18:21:34.410Z,26.90
2018-02-14T18:24:05.699Z,27.30
2018-02-14T18:26:33.680Z,27.90
2018-02-14T18:29:02.078Z,27.40
2018-02-14T18:31:30.066Z,27.30
2018-02-14T18:33:58.682Z,27.50
2018-02-14T18:36:26.765Z,27.30
2018-02-14T18:38:54.913Z,27.50
2018-02-14T18:41:22.705Z,27.00
2018-02-14T18:43:50.473Z,27.00
2018-02-14T18:46:23.245Z,26.90
2018-02-14T19:07:36.847Z,27.20
2018-02-14T19:10:07.868Z,27.60
2018-02-14T19:12:39.608Z,27.80
2018-02-14T19:15:08.544Z,27.80
2018-02-14T19:17:36.351Z,28.00
2018-02-14T19:20:04.134Z,27.90
2018-02-14T19:22:31.937Z,27.80
2018-02-14T19:25:00.303Z,27.80
2018-02-14T19:27:28.063Z,27.90
2018-02-14T19:29:55.892Z,27.90
2018-02-14T19:32:27.377Z,27.80
2018-02-14T19:34:55.920Z,27.50
2018-02-14T19:37:23.900Z,27.50
2018-02-14T19:39:51.665Z,27.50
2018-02-14T19:42:22.542Z,27.50
2018-02-14T19:44:50.311Z,27.60
2018-02-14T19:47:18.063Z,27.70
2018-02-14T19:49:47.541Z,27.80
2018-02-14T19:52:16.078Z,27.70
2018-02-14T19:57:16.168Z,27.70
2018-02-14T19:59:45.312Z,27.60
2018-02-14T20:02:19.699Z,27.80
2018-02-14T20:04:47.772Z,27.80
2018-02-14T20:07:15.836Z,27.70
2018-02-14T20:09:44.218Z,27.80
2018-02-14T20:12:24.278Z,27.80
2018-02-14T20:14:53.713Z,27.80
2018-02-14T20:17:23.475Z,27.70
2018-02-14T20:20:24.165Z,27.70
2018-02-14T20:22:52.591Z,27.70
2018-02-14T20:25:21.620Z,27.50
2018-02-14T20:27:50.576Z,27.60
2018-02-14T20:30:20.637Z,27.80
2018-02-14T20:32:51.680Z,27.80
2018-02-14T20:35:20.245Z,27.90
2018-02-14T20:37:48.094Z,27.80
2018-02-14T20:40:16.141Z,27.80
2018-02-14T20:42:45.094Z,27.70
2018-02-14T20:45:19.762Z,27.60
2018-02-14T20:47:49.924Z,27.60
2018-02-14T20:50:27.749Z,27.60
2018-02-14T20:52:57.503Z,28.10
2018-02-14T20:55:28.813Z,27.60
2018-02-14T20:57:58.246Z,27.40
2018-02-14T21:00:30.141Z,27.50
2018-02-14T21:03:07.826Z,27.60
2018-02-14T21:05:40.047Z,27.50
2018-02-14T21:08:12.652Z,27.40
2018-02-14T21:10:53.140Z,27.40
2018-02-14T21:13:20.941Z,27.50
2018-02-14T21:15:48.730Z,27.50
2018-02-14T21:18:28.410Z,27.40
2018-02-14T21:20:57.691Z,27.40
2018-02-14T21:23:25.558Z,27.30
2018-02-14T21:25:55.360Z,27.40
2018-02-14T21:28:23.249Z,27.50
2018-02-14T21:30:51.193Z,27.50
2018-02-14T21:33:19.004Z,27.50
2018-02-14T21:35:46.776Z,27.60
2018-02-14T21:38:14.566Z,27.40
2018-02-14T21:40:42.270Z,27.60
2018-02-14T21:43:14.472Z,27.40
2018-02-14T21:45:42.807Z,27.30
2018-02-14T21:48:10.732Z,27.60
2018-02-14T21:50:38.510Z,27.40
2018-02-14T21:53:06.339Z,27.50
2018-02-14T21:55:34.123Z,27.50
2018-02-14T21:58:01.913Z,27.60
2018-02-14T22:00:29.695Z,27.50
2018-02-14T22:02:58.312Z,27.50
2018-02-14T22:05:26.087Z,27.60
2018-02-14T22:07:53.812Z,27.50
2018-02-14T22:10:21.608Z,27.70
2018-02-14T22:12:50.311Z,27.80
2018-02-14T22:15:18.031Z,27.80
2018-02-14T22:17:45.807Z,27.70
2018-02-14T22:20:13.629Z,27.80
2018-02-14T22:22:42.164Z,27.90
2018-02-14T22:25:09.960Z,27.80
2018-02-14T22:27:37.710Z,28.10
2018-02-14T22:30:05.431Z,27.90
2018-02-14T22:32:33.243Z,28.00
2018-02-14T22:35:02.972Z,28.00
2018-02-14T22:37:30.969Z,28.10
2018-02-14T22:39:58.777Z,28.20
2018-02-14T22:42:26.587Z,28.20
2018-02-14T22:44:54.404Z,28.40
2018-02-14T22:47:22.980Z,28.50
2018-02-14T22:49:51.552Z,28.40
2018-02-14T22:52:19.282Z,28.40
2018-02-14T22:54:47.029Z,28.40
2018-02-14T22:57:14.864Z,28.60
2018-02-14T22:59:42.638Z,28.40
2018-02-14T23:02:10.360Z,28.30
2018-02-14T23:04:38.127Z,28.30
2018-02-14T23:07:06.628Z,28.30
2018-02-14T23:09:35.222Z,28.30
2018-02-14T23:12:03.000Z,28.20
2018-02-14T23:14:30.745Z,28.30
2018-02-14T23:16:58.513Z,28.40
2018-02-14T23:19:26.310Z,28.40
2018-02-14T23:21:54.102Z,28.30
2018-02-14T23:24:21.828Z,28.50
2018-02-14T23:26:49.594Z,28.60
2018-02-14T23:29:17.416Z,28.60
2018-02-14T23:31:45.185Z,28.60
2018-02-14T23:34:12.987Z,28.70
2018-02-14T23:36:40.706Z,28.70
2018-02-14T23:39:08.488Z,28.80
2018-02-14T23:41:36.202Z,29.00
2018-02-14T23:44:03.928Z,28.90
2018-02-14T23:46:31.709Z,28.80
2018-02-14T23:48:59.434Z,28.90
2018-02-14T23:51:27.157Z,29.00
2018-02-14T23:53:54.941Z,29.10
2018-02-14T23:56:22.668Z,29.20
2018-02-14T23:58:50.404Z,29.20
